sensor_id;sensor_type;location;lat;lon;timestamp;pressure;altitude;pressure_sealevel;temperature;humidity
60715;BME280;46564;53.096;8.246;2023-01-29T00:01:18;102656.00;;;0.45;90.07
60715;BME280;46564;53.096;8.246;2023-01-29T00:06:20;102653.16;;;0.42;89.99
60715;BME280;46564;53.096;8.246;2023-01-29T00:11:23;102661.66;;;0.41;89.95
60715;BME280;46564;53.096;8.246;2023-01-29T00:16:25;102644.63;;;0.43;89.91
60715;BME280;46564;53.096;8.246;2023-01-29T00:21:27;102642.06;;;0.43;90.16
60715;BME280;46564;53.096;8.246;2023-01-29T00:26:31;102614.50;;;0.42;89.96
60715;BME280;46564;53.096;8.246;2023-01-29T00:31:33;102617.06;;;0.42;90.09
60715;BME280;46564;53.096;8.246;2023-01-29T00:36:35;102613.69;;;0.43;90.09
60715;BME280;46564;53.096;8.246;2023-01-29T00:41:37;102617.34;;;0.45;90.26
60715;BME280;46564;53.096;8.246;2023-01-29T00:46:57;102623.66;;;0.49;90.17
60715;BME280;46564;53.096;8.246;2023-01-29T00:51:59;102638.97;;;0.47;90.25
60715;BME280;46564;53.096;8.246;2023-01-29T00:57:19;102610.13;;;0.51;90.22
60715;BME280;46564;53.096;8.246;2023-01-29T01:02:21;102623.16;;;0.53;89.89
60715;BME280;46564;53.096;8.246;2023-01-29T01:07:46;102627.81;;;0.57;89.75
60715;BME280;46564;53.096;8.246;2023-01-29T01:12:58;102636.31;;;0.56;90.01
60715;BME280;46564;53.096;8.246;2023-01-29T01:18:02;102622.78;;;0.59;89.94
60715;BME280;46564;53.096;8.246;2023-01-29T01:23:03;102622.13;;;0.61;89.54
60715;BME280;46564;53.096;8.246;2023-01-29T01:28:05;102632.44;;;0.61;89.72
60715;BME280;46564;53.096;8.246;2023-01-29T01:33:07;102621.25;;;0.61;89.42
60715;BME280;46564;53.096;8.246;2023-01-29T01:38:09;102620.47;;;0.62;89.65
60715;BME280;46564;53.096;8.246;2023-01-29T01:43:11;102630.94;;;0.63;89.67
60715;BME280;46564;53.096;8.246;2023-01-29T01:48:20;102631.81;;;0.64;89.53
60715;BME280;46564;53.096;8.246;2023-01-29T01:53:36;102620.22;;;0.69;89.39
60715;BME280;46564;53.096;8.246;2023-01-29T01:58:42;102623.72;;;0.69;89.39
60715;BME280;46564;53.096;8.246;2023-01-29T02:03:55;102619.31;;;0.68;89.27
60715;BME280;46564;53.096;8.246;2023-01-29T02:09:18;102623.59;;;0.68;89.21
60715;BME280;46564;53.096;8.246;2023-01-29T02:14:36;102625.50;;;0.60;89.39
60715;BME280;46564;53.096;8.246;2023-01-29T02:25:01;102643.91;;;0.55;89.28
60715;BME280;46564;53.096;8.246;2023-01-29T02:35:20;102639.59;;;0.45;89.43
60715;BME280;46564;53.096;8.246;2023-01-29T02:51:21;102613.47;;;0.50;89.88
60715;BME280;46564;53.096;8.246;2023-01-29T02:56:34;102599.16;;;0.54;90.04
60715;BME280;46564;53.096;8.246;2023-01-29T03:01:42;102578.72;;;0.56;89.81
60715;BME280;46564;53.096;8.246;2023-01-29T03:06:50;102567.22;;;0.62;90.08
60715;BME280;46564;53.096;8.246;2023-01-29T03:12:04;102557.19;;;0.65;89.82
60715;BME280;46564;53.096;8.246;2023-01-29T03:17:24;102542.59;;;0.66;90.01
60715;BME280;46564;53.096;8.246;2023-01-29T03:22:28;102530.91;;;0.69;90.08
60715;BME280;46564;53.096;8.246;2023-01-29T03:27:40;102514.25;;;0.76;90.13
60715;BME280;46564;53.096;8.246;2023-01-29T03:33:09;102513.50;;;0.77;90.38
60715;BME280;46564;53.096;8.246;2023-01-29T03:38:12;102513.25;;;0.84;90.18
60715;BME280;46564;53.096;8.246;2023-01-29T03:43:32;102498.66;;;0.85;90.35
60715;BME280;46564;53.096;8.246;2023-01-29T03:53:45;102514.00;;;0.94;90.62
60715;BME280;46564;53.096;8.246;2023-01-29T04:04:36;102496.56;;;1.01;90.67
60715;BME280;46564;53.096;8.246;2023-01-29T04:09:45;102493.63;;;1.07;90.53
60715;BME280;46564;53.096;8.246;2023-01-29T04:14:50;102491.78;;;1.06;90.48
60715;BME280;46564;53.096;8.246;2023-01-29T04:19:54;102486.38;;;1.13;90.38
60715;BME280;46564;53.096;8.246;2023-01-29T04:24:57;102496.94;;;1.16;90.44
60715;BME280;46564;53.096;8.246;2023-01-29T04:40:50;102493.84;;;1.20;90.38
60715;BME280;46564;53.096;8.246;2023-01-29T04:46:16;102493.84;;;1.20;90.32
60715;BME280;46564;53.096;8.246;2023-01-29T04:56:40;102508.16;;;1.27;90.44
60715;BME280;46564;53.096;8.246;2023-01-29T05:01:45;102502.47;;;1.31;90.46
60715;BME280;46564;53.096;8.246;2023-01-29T05:06:49;102489.69;;;1.33;90.51
60715;BME280;46564;53.096;8.246;2023-01-29T05:11:51;102478.59;;;1.34;90.25
60715;BME280;46564;53.096;8.246;2023-01-29T05:16:54;102473.56;;;1.35;90.26
60715;BME280;46564;53.096;8.246;2023-01-29T05:21:57;102476.78;;;1.33;90.74
60715;BME280;46564;53.096;8.246;2023-01-29T05:26:59;102478.97;;;1.38;90.50
60715;BME280;46564;53.096;8.246;2023-01-29T05:32:20;102477.81;;;1.35;90.57
60715;BME280;46564;53.096;8.246;2023-01-29T05:37:21;102476.78;;;1.33;91.08
60715;BME280;46564;53.096;8.246;2023-01-29T05:42:23;102459.59;;;1.33;91.12
60715;BME280;46564;53.096;8.246;2023-01-29T05:47:24;102457.47;;;1.28;91.40
60715;BME280;46564;53.096;8.246;2023-01-29T05:52:26;102449.19;;;1.21;91.82
60715;BME280;46564;53.096;8.246;2023-01-29T05:57:27;102453.34;;;1.19;92.16
60715;BME280;46564;53.096;8.246;2023-01-29T06:02:29;102458.50;;;1.19;92.61
60715;BME280;46564;53.096;8.246;2023-01-29T06:07:31;102451.41;;;1.17;92.61
60715;BME280;46564;53.096;8.246;2023-01-29T06:12:33;102447.41;;;1.20;92.88
60715;BME280;46564;53.096;8.246;2023-01-29T06:17:34;102434.63;;;1.22;93.24
60715;BME280;46564;53.096;8.246;2023-01-29T06:22:36;102443.91;;;1.20;93.50
60715;BME280;46564;53.096;8.246;2023-01-29T06:27:37;102425.97;;;1.21;93.69
60715;BME280;46564;53.096;8.246;2023-01-29T06:32:39;102431.38;;;1.24;93.86
60715;BME280;46564;53.096;8.246;2023-01-29T06:37:41;102433.31;;;1.27;94.07
60715;BME280;46564;53.096;8.246;2023-01-29T06:42:42;102417.06;;;1.28;93.79
60715;BME280;46564;53.096;8.246;2023-01-29T06:47:46;102418.75;;;1.28;94.24
60715;BME280;46564;53.096;8.246;2023-01-29T06:52:48;102420.53;;;1.29;94.39
60715;BME280;46564;53.096;8.246;2023-01-29T06:57:49;102411.78;;;1.27;94.52
60715;BME280;46564;53.096;8.246;2023-01-29T07:02:54;102428.78;;;1.24;94.59
60715;BME280;46564;53.096;8.246;2023-01-29T07:08:06;102416.00;;;1.26;94.94
60715;BME280;46564;53.096;8.246;2023-01-29T07:13:09;102398.88;;;1.27;95.27
60715;BME280;46564;53.096;8.246;2023-01-29T07:18:10;102399.88;;;1.29;95.31
60715;BME280;46564;53.096;8.246;2023-01-29T07:23:13;102385.19;;;1.28;95.17
60715;BME280;46564;53.096;8.246;2023-01-29T07:28:19;102388.78;;;1.30;95.19
60715;BME280;46564;53.096;8.246;2023-01-29T07:33:24;102401.03;;;1.32;95.28
60715;BME280;46564;53.096;8.246;2023-01-29T07:38:26;102392.38;;;1.32;95.53
60715;BME280;46564;53.096;8.246;2023-01-29T07:43:28;102385.00;;;1.36;95.49
60715;BME280;46564;53.096;8.246;2023-01-29T07:48:30;102384.59;;;1.42;95.53
60715;BME280;46564;53.096;8.246;2023-01-29T07:53:32;102376.22;;;1.45;95.48
60715;BME280;46564;53.096;8.246;2023-01-29T07:58:33;102378.03;;;1.46;95.00
60715;BME280;46564;53.096;8.246;2023-01-29T08:03:37;102373.09;;;1.49;95.52
60715;BME280;46564;53.096;8.246;2023-01-29T08:08:38;102363.91;;;1.52;95.22
60715;BME280;46564;53.096;8.246;2023-01-29T08:13:40;102363.72;;;1.61;95.08
60715;BME280;46564;53.096;8.246;2023-01-29T08:18:42;102365.34;;;1.71;94.58
60715;BME280;46564;53.096;8.246;2023-01-29T08:23:48;102363.22;;;1.77;94.62
60715;BME280;46564;53.096;8.246;2023-01-29T08:28:49;102353.13;;;1.80;94.44
60715;BME280;46564;53.096;8.246;2023-01-29T08:33:52;102355.19;;;1.84;93.97
60715;BME280;46564;53.096;8.246;2023-01-29T08:38:54;102361.06;;;1.93;93.65
60715;BME280;46564;53.096;8.246;2023-01-29T08:43:56;102366.56;;;1.98;93.31
60715;BME280;46564;53.096;8.246;2023-01-29T08:48:58;102370.31;;;2.02;92.79
60715;BME280;46564;53.096;8.246;2023-01-29T08:53:59;102363.03;;;2.08;92.44
60715;BME280;46564;53.096;8.246;2023-01-29T08:59:01;102367.97;;;2.05;91.94
60715;BME280;46564;53.096;8.246;2023-01-29T09:04:02;102361.53;;;2.00;91.90
60715;BME280;46564;53.096;8.246;2023-01-29T09:09:04;102348.59;;;2.00;91.43
60715;BME280;46564;53.096;8.246;2023-01-29T09:14:06;102339.84;;;1.98;91.27
60715;BME280;46564;53.096;8.246;2023-01-29T09:19:07;102346.81;;;1.99;91.25
60715;BME280;46564;53.096;8.246;2023-01-29T09:24:09;102326.16;;;1.99;91.29
60715;BME280;46564;53.096;8.246;2023-01-29T09:29:11;102321.00;;;1.99;91.15
60715;BME280;46564;53.096;8.246;2023-01-29T09:34:12;102325.72;;;2.04;90.73
60715;BME280;46564;53.096;8.246;2023-01-29T09:39:14;102320.09;;;2.10;90.77
60715;BME280;46564;53.096;8.246;2023-01-29T09:49:33;102307.22;;;2.22;90.24
60715;BME280;46564;53.096;8.246;2023-01-29T09:55:19;102299.03;;;2.39;90.07
60715;BME280;46564;53.096;8.246;2023-01-29T10:11:09;102273.66;;;2.57;89.30
60715;BME280;46564;53.096;8.246;2023-01-29T10:26:35;102258.78;;;2.90;88.43
60715;BME280;46564;53.096;8.246;2023-01-29T10:31:38;102264.84;;;2.91;88.24
60715;BME280;46564;53.096;8.246;2023-01-29T10:36:44;102262.78;;;2.98;87.98
60715;BME280;46564;53.096;8.246;2023-01-29T10:52:44;102249.06;;;3.11;87.66
60715;BME280;46564;53.096;8.246;2023-01-29T10:58:18;102241.41;;;3.13;87.46
60715;BME280;46564;53.096;8.246;2023-01-29T11:03:28;102230.16;;;3.12;87.27
60715;BME280;46564;53.096;8.246;2023-01-29T11:08:40;102218.78;;;3.10;87.21
60715;BME280;46564;53.096;8.246;2023-01-29T11:18:53;102202.84;;;3.29;86.93
60715;BME280;46564;53.096;8.246;2023-01-29T11:24:13;102193.38;;;3.30;86.61
60715;BME280;46564;53.096;8.246;2023-01-29T11:29:30;102188.31;;;3.31;86.45
60715;BME280;46564;53.096;8.246;2023-01-29T11:34:33;102184.50;;;3.26;86.19
60715;BME280;46564;53.096;8.246;2023-01-29T11:39:42;102171.56;;;3.26;86.63
60715;BME280;46564;53.096;8.246;2023-01-29T11:44:44;102165.47;;;3.26;86.65
60715;BME280;46564;53.096;8.246;2023-01-29T11:49:52;102154.22;;;3.25;86.57
60715;BME280;46564;53.096;8.246;2023-01-29T11:54:59;102148.16;;;3.25;86.48
60715;BME280;46564;53.096;8.246;2023-01-29T12:00:15;102147.25;;;3.24;86.56
60715;BME280;46564;53.096;8.246;2023-01-29T12:05:22;102128.34;;;3.25;86.60
60715;BME280;46564;53.096;8.246;2023-01-29T12:10:34;102131.81;;;3.26;86.42
60715;BME280;46564;53.096;8.246;2023-01-29T12:15:39;102131.81;;;3.26;86.28
60715;BME280;46564;53.096;8.246;2023-01-29T12:20:53;102114.63;;;3.26;86.48
60715;BME280;46564;53.096;8.246;2023-01-29T12:26:07;102110.31;;;3.27;86.42
60715;BME280;46564;53.096;8.246;2023-01-29T12:36:25;102086.72;;;3.22;86.33
60715;BME280;46564;53.096;8.246;2023-01-29T12:41:44;102090.53;;;3.27;86.25
60715;BME280;46564;53.096;8.246;2023-01-29T12:46:52;102066.00;;;3.22;86.31
60715;BME280;46564;53.096;8.246;2023-01-29T12:52:20;102059.47;;;3.27;86.14
60715;BME280;46564;53.096;8.246;2023-01-29T12:57:31;102052.28;;;3.23;86.01
60715;BME280;46564;53.096;8.246;2023-01-29T13:02:53;102035.63;;;3.19;86.36
60715;BME280;46564;53.096;8.246;2023-01-29T13:08:00;102024.19;;;3.16;86.29
60715;BME280;46564;53.096;8.246;2023-01-29T13:13:13;102016.38;;;3.03;86.59
60715;BME280;46564;53.096;8.246;2023-01-29T13:23:42;101994.66;;;2.87;87.51
60715;BME280;46564;53.096;8.246;2023-01-29T13:28:48;102002.53;;;2.89;88.23
60715;BME280;46564;53.096;8.246;2023-01-29T13:34:23;101986.78;;;2.86;88.70
60715;BME280;46564;53.096;8.246;2023-01-29T13:39:30;101980.69;;;2.85;89.16
60715;BME280;46564;53.096;8.246;2023-01-29T13:44:38;101973.16;;;2.88;89.27
60715;BME280;46564;53.096;8.246;2023-01-29T13:49:46;101963.03;;;2.91;89.39
60715;BME280;46564;53.096;8.246;2023-01-29T13:54:57;101955.28;;;2.91;89.54
60715;BME280;46564;53.096;8.246;2023-01-29T14:00:00;101957.34;;;2.97;89.76
60715;BME280;46564;53.096;8.246;2023-01-29T14:10:33;101944.00;;;2.91;89.55
60715;BME280;46564;53.096;8.246;2023-01-29T14:15:36;101940.44;;;2.89;89.43
60715;BME280;46564;53.096;8.246;2023-01-29T14:21:02;101942.53;;;2.94;89.47
60715;BME280;46564;53.096;8.246;2023-01-29T14:26:04;101929.41;;;2.91;89.36
60715;BME280;46564;53.096;8.246;2023-01-29T14:31:06;101922.41;;;2.90;89.06
60715;BME280;46564;53.096;8.246;2023-01-29T14:36:11;101918.31;;;2.80;89.15
60715;BME280;46564;53.096;8.246;2023-01-29T14:51:38;101900.28;;;2.69;89.15
60715;BME280;46564;53.096;8.246;2023-01-29T14:56:44;101888.22;;;2.56;89.50
60715;BME280;46564;53.096;8.246;2023-01-29T15:01:55;101878.94;;;2.46;89.46
60715;BME280;46564;53.096;8.246;2023-01-29T15:12:11;101868.41;;;2.43;90.21
60715;BME280;46564;53.096;8.246;2023-01-29T15:17:21;101856.41;;;2.43;90.46
60715;BME280;46564;53.096;8.246;2023-01-29T15:22:25;101873.75;;;2.33;90.32
60715;BME280;46564;53.096;8.246;2023-01-29T15:27:29;101847.69;;;2.29;90.41
60715;BME280;46564;53.096;8.246;2023-01-29T15:32:34;101854.66;;;2.30;90.70
60715;BME280;46564;53.096;8.246;2023-01-29T15:37:36;101841.53;;;2.27;90.74
60715;BME280;46564;53.096;8.246;2023-01-29T15:42:46;101826.91;;;2.28;90.82
60715;BME280;46564;53.096;8.246;2023-01-29T15:47:49;101815.84;;;2.17;91.12
60715;BME280;46564;53.096;8.246;2023-01-29T15:52:52;101820.59;;;2.11;91.19
60715;BME280;46564;53.096;8.246;2023-01-29T15:57:54;101803.72;;;2.03;91.50
60715;BME280;46564;53.096;8.246;2023-01-29T16:02:58;101809.44;;;1.99;92.03
60715;BME280;46564;53.096;8.246;2023-01-29T16:08:02;101800.00;;;1.99;92.25
60715;BME280;46564;53.096;8.246;2023-01-29T16:13:04;101806.66;;;1.96;92.35
60715;BME280;46564;53.096;8.246;2023-01-29T16:18:31;101804.66;;;1.91;92.67
60715;BME280;46564;53.096;8.246;2023-01-29T16:23:44;101804.59;;;1.78;92.67
60715;BME280;46564;53.096;8.246;2023-01-29T16:28:49;101805.75;;;1.70;93.17
60715;BME280;46564;53.096;8.246;2023-01-29T16:33:52;101805.44;;;1.65;93.35
60715;BME280;46564;53.096;8.246;2023-01-29T16:39:00;101801.75;;;1.62;93.65
60715;BME280;46564;53.096;8.246;2023-01-29T16:44:36;101796.38;;;1.58;94.14
60715;BME280;46564;53.096;8.246;2023-01-29T16:54:42;101767.22;;;1.48;94.33
60715;BME280;46564;53.096;8.246;2023-01-29T16:59:44;101765.31;;;1.45;94.57
60715;BME280;46564;53.096;8.246;2023-01-29T17:04:47;101760.72;;;1.41;94.80
60715;BME280;46564;53.096;8.246;2023-01-29T17:09:52;101756.59;;;1.43;95.12
60715;BME280;46564;53.096;8.246;2023-01-29T17:15:28;101744.78;;;1.47;95.13
60715;BME280;46564;53.096;8.246;2023-01-29T17:20:31;101742.09;;;1.45;95.28
60715;BME280;46564;53.096;8.246;2023-01-29T17:25:32;101733.78;;;1.49;95.40
60715;BME280;46564;53.096;8.246;2023-01-29T17:30:34;101725.03;;;1.47;95.48
60715;BME280;46564;53.096;8.246;2023-01-29T17:35:37;101709.75;;;1.50;95.28
60715;BME280;46564;53.096;8.246;2023-01-29T17:40:50;101709.06;;;1.53;95.46
60715;BME280;46564;53.096;8.246;2023-01-29T17:45:53;101696.16;;;1.53;95.20
60715;BME280;46564;53.096;8.246;2023-01-29T17:50:57;101684.94;;;1.52;95.30
60715;BME280;46564;53.096;8.246;2023-01-29T17:56:00;101653.56;;;1.46;95.26
60715;BME280;46564;53.096;8.246;2023-01-29T18:01:02;101646.00;;;1.49;95.28
60715;BME280;46564;53.096;8.246;2023-01-29T18:06:08;101650.19;;;1.47;95.28
60715;BME280;46564;53.096;8.246;2023-01-29T18:11:11;101636.47;;;1.48;95.28
60715;BME280;46564;53.096;8.246;2023-01-29T18:16:13;101631.19;;;1.47;95.19
60715;BME280;46564;53.096;8.246;2023-01-29T18:21:16;101627.84;;;1.48;94.65
60715;BME280;46564;53.096;8.246;2023-01-29T18:26:18;101615.72;;;1.47;94.85
60715;BME280;46564;53.096;8.246;2023-01-29T18:31:22;101616.84;;;1.50;94.82
60715;BME280;46564;53.096;8.246;2023-01-29T18:36:24;101598.97;;;1.53;94.76
60715;BME280;46564;53.096;8.246;2023-01-29T18:41:25;101578.53;;;1.56;94.66
60715;BME280;46564;53.096;8.246;2023-01-29T18:46:27;101584.88;;;1.62;94.37
60715;BME280;46564;53.096;8.246;2023-01-29T18:51:29;101576.53;;;1.66;94.52
60715;BME280;46564;53.096;8.246;2023-01-29T18:56:31;101559.34;;;1.66;94.06
60715;BME280;46564;53.096;8.246;2023-01-29T19:01:32;101548.44;;;1.70;94.49
60715;BME280;46564;53.096;8.246;2023-01-29T19:06:34;101532.25;;;1.73;94.22
60715;BME280;46564;53.096;8.246;2023-01-29T19:11:38;101526.28;;;1.74;94.21
60715;BME280;46564;53.096;8.246;2023-01-29T19:16:39;101521.13;;;1.74;93.92
60715;BME280;46564;53.096;8.246;2023-01-29T19:21:42;101544.66;;;1.79;93.77
60715;BME280;46564;53.096;8.246;2023-01-29T19:26:44;101520.72;;;1.81;93.77
60715;BME280;46564;53.096;8.246;2023-01-29T19:31:46;101524.09;;;1.80;93.46
60715;BME280;46564;53.096;8.246;2023-01-29T19:36:48;101499.56;;;1.87;93.54
60715;BME280;46564;53.096;8.246;2023-01-29T19:41:49;101505.50;;;1.86;93.28
60715;BME280;46564;53.096;8.246;2023-01-29T19:46:51;101492.59;;;1.86;93.13
60715;BME280;46564;53.096;8.246;2023-01-29T19:51:53;101492.09;;;1.91;93.27
60715;BME280;46564;53.096;8.246;2023-01-29T19:56:56;101481.28;;;1.97;93.16
60715;BME280;46564;53.096;8.246;2023-01-29T20:01:58;101491.28;;;2.06;93.06
60715;BME280;46564;53.096;8.246;2023-01-29T20:07:00;101483.75;;;2.09;92.77
60715;BME280;46564;53.096;8.246;2023-01-29T20:12:02;101473.69;;;2.14;92.86
60715;BME280;46564;53.096;8.246;2023-01-29T20:17:04;101468.19;;;2.22;92.53
60715;BME280;46564;53.096;8.246;2023-01-29T20:22:08;101476.94;;;2.24;92.39
60715;BME280;46564;53.096;8.246;2023-01-29T20:27:11;101455.03;;;2.33;92.39
60715;BME280;46564;53.096;8.246;2023-01-29T20:32:12;101453.44;;;2.35;92.34
60715;BME280;46564;53.096;8.246;2023-01-29T20:37:14;101438.91;;;2.37;92.24
60715;BME280;46564;53.096;8.246;2023-01-29T20:42:16;101446.94;;;2.41;92.09
60715;BME280;46564;53.096;8.246;2023-01-29T20:47:18;101438.47;;;2.44;92.37
60715;BME280;46564;53.096;8.246;2023-01-29T20:52:20;101424.94;;;2.48;92.16
60715;BME280;46564;53.096;8.246;2023-01-29T20:57:22;101430.13;;;2.48;92.21
60715;BME280;46564;53.096;8.246;2023-01-29T21:02:24;101424.03;;;2.47;91.84
60715;BME280;46564;53.096;8.246;2023-01-29T21:07:29;101411.19;;;2.49;91.92
60715;BME280;46564;53.096;8.246;2023-01-29T21:12:30;101409.63;;;2.51;92.09
60715;BME280;46564;53.096;8.246;2023-01-29T21:17:32;101412.28;;;2.53;92.20
60715;BME280;46564;53.096;8.246;2023-01-29T21:22:35;101393.19;;;2.51;92.21
60715;BME280;46564;53.096;8.246;2023-01-29T21:27:37;101382.94;;;2.52;92.77
60715;BME280;46564;53.096;8.246;2023-01-29T21:32:39;101368.78;;;2.45;92.26
60715;BME280;46564;53.096;8.246;2023-01-29T21:37:40;101365.94;;;2.41;92.41
60715;BME280;46564;53.096;8.246;2023-01-29T21:42:42;101378.84;;;2.41;92.43
60715;BME280;46564;53.096;8.246;2023-01-29T21:48:03;101359.56;;;2.36;92.72
60715;BME280;46564;53.096;8.246;2023-01-29T21:53:05;101379.28;;;2.34;92.91
60715;BME280;46564;53.096;8.246;2023-01-29T21:58:08;101370.56;;;2.32;93.17
60715;BME280;46564;53.096;8.246;2023-01-29T22:03:13;101336.69;;;2.27;93.72
60715;BME280;46564;53.096;8.246;2023-01-29T22:08:16;101313.34;;;2.25;94.04
60715;BME280;46564;53.096;8.246;2023-01-29T22:13:19;101306.00;;;2.18;94.09
60715;BME280;46564;53.096;8.246;2023-01-29T22:18:22;101290.59;;;2.20;94.23
60715;BME280;46564;53.096;8.246;2023-01-29T22:23:24;101282.84;;;2.20;94.43
60715;BME280;46564;53.096;8.246;2023-01-29T22:28:25;101264.06;;;2.22;94.81
60715;BME280;46564;53.096;8.246;2023-01-29T22:33:27;101256.41;;;2.24;94.82
60715;BME280;46564;53.096;8.246;2023-01-29T22:38:29;101255.66;;;2.26;94.81
60715;BME280;46564;53.096;8.246;2023-01-29T22:43:32;101246.31;;;2.28;95.05
60715;BME280;46564;53.096;8.246;2023-01-29T22:48:34;101228.41;;;2.32;95.18
60715;BME280;46564;53.096;8.246;2023-01-29T22:53:50;101213.88;;;2.34;95.13
60715;BME280;46564;53.096;8.246;2023-01-29T22:58:53;101199.31;;;2.36;95.07
60715;BME280;46564;53.096;8.246;2023-01-29T23:03:56;101179.81;;;2.41;95.14
60715;BME280;46564;53.096;8.246;2023-01-29T23:08:57;101140.44;;;2.45;94.78
60715;BME280;46564;53.096;8.246;2023-01-29T23:13:59;101126.03;;;2.50;95.37
60715;BME280;46564;53.096;8.246;2023-01-29T23:19:00;101129.97;;;2.58;94.98
60715;BME280;46564;53.096;8.246;2023-01-29T23:24:02;101142.38;;;2.65;94.85
60715;BME280;46564;53.096;8.246;2023-01-29T23:29:04;101156.31;;;2.68;94.78
60715;BME280;46564;53.096;8.246;2023-01-29T23:34:06;101171.16;;;2.72;94.51
60715;BME280;46564;53.096;8.246;2023-01-29T23:39:07;101162.94;;;2.79;94.44
60715;BME280;46564;53.096;8.246;2023-01-29T23:44:09;101149.63;;;2.88;94.30
60715;BME280;46564;53.096;8.246;2023-01-29T23:49:10;101125.72;;;2.92;94.38
60715;BME280;46564;53.096;8.246;2023-01-29T23:54:12;101096.84;;;3.00;94.13
60715;BME280;46564;53.096;8.246;2023-01-29T23:59:14;101104.63;;;3.00;94.18
